Time;durP1;ratioP1;P1;durP2;ratioP2;P2;SDS_P1;SDS_P2;PMS_P1;PMS_P2;Temp;Humidity;BMP_temperature;BMP_pressure;BME280_temperature;BME280_humidity;BME280_pressure;Samples;Min_cycle;Max_cycle;Signal;HPM_P1;HPM_P2
2023/12/23 00:00:03;;;;;;;0.83;0.70;;;1.50;99.90;;;;;;4916383;29;20216;-64
2023/12/23 00:02:29;;;;;;;2.20;1.00;;;1.50;99.90;;;;;;4909729;29;20188;-64
2023/12/23 00:04:54;;;;;;;1.00;0.90;;;1.40;99.90;;;;;;4921832;29;20445;-64
2023/12/23 00:07:20;;;;;;;0.70;0.70;;;1.30;99.90;;;;;;4913018;29;20184;-63
2023/12/23 00:09:45;;;;;;;0.80;0.80;;;1.30;99.90;;;;;;4920717;29;20234;-64
2023/12/23 00:12:11;;;;;;;6.00;0.90;;;1.40;99.90;;;;;;4905690;29;20267;-63
2023/12/23 00:14:37;;;;;;;1.00;0.90;;;1.40;99.90;;;;;;4912231;29;20585;-64
2023/12/23 00:17:03;;;;;;;1.10;0.80;;;1.40;99.90;;;;;;4924385;29;20190;-65
2023/12/23 00:19:28;;;;;;;3.13;1.80;;;1.40;99.90;;;;;;4913530;29;20203;-63
2023/12/23 00:21:57;;;;;;;1.10;1.00;;;1.40;99.90;;;;;;4913547;29;20433;-64
2023/12/23 00:24:28;;;;;;;1.90;0.90;;;1.40;99.90;;;;;;4914043;29;20227;-64
2023/12/23 00:26:57;;;;;;;3.40;1.10;;;1.40;99.90;;;;;;4912698;29;20435;-63
2023/12/23 00:29:25;;;;;;;1.13;0.97;;;1.40;99.90;;;;;;4914069;29;20486;-64
2023/12/23 00:31:51;;;;;;;4.07;1.00;;;1.40;99.90;;;;;;4903818;29;20497;-64
2023/12/23 00:34:16;;;;;;;1.00;0.80;;;1.30;99.90;;;;;;4911794;29;20563;-62
2023/12/23 00:36:43;;;;;;;2.40;1.07;;;1.20;99.90;;;;;;4911604;29;20755;-62
2023/12/23 00:39:09;;;;;;;0.77;0.77;;;1.20;99.90;;;;;;4899441;29;20196;-62
2023/12/23 00:41:35;;;;;;;2.40;0.93;;;1.20;99.90;;;;;;4903499;29;21037;-60
2023/12/23 00:44:01;;;;;;;1.00;0.80;;;1.20;99.90;;;;;;4901343;29;20857;-61
2023/12/23 00:46:28;;;;;;;1.13;1.03;;;1.20;99.90;;;;;;4900184;29;20441;-59
2023/12/23 00:48:54;;;;;;;1.10;1.00;;;1.20;99.90;;;;;;4910966;29;20463;-62
2023/12/23 00:51:20;;;;;;;0.90;0.90;;;1.30;99.90;;;;;;4912743;29;20447;-60
2023/12/23 00:53:45;;;;;;;0.97;0.90;;;1.30;99.90;;;;;;4910695;29;20434;-63
2023/12/23 00:56:11;;;;;;;1.07;1.07;;;1.30;99.90;;;;;;4907611;29;20223;-65
2023/12/23 00:58:36;;;;;;;1.20;0.90;;;1.30;99.90;;;;;;4903402;29;20184;-63
2023/12/23 01:01:03;;;;;;;2.00;0.93;;;1.30;99.90;;;;;;4903327;29;20204;-58
2023/12/23 01:03:28;;;;;;;1.90;0.90;;;1.20;99.90;;;;;;4906836;29;20198;-62
2023/12/23 01:05:54;;;;;;;1.00;0.90;;;1.20;99.90;;;;;;4907300;29;20431;-64
2023/12/23 01:08:20;;;;;;;2.97;0.90;;;1.20;99.90;;;;;;4912652;29;20746;-65
2023/12/23 01:10:45;;;;;;;1.40;1.30;;;1.20;99.90;;;;;;4913380;29;20479;-60
2023/12/23 01:13:11;;;;;;;0.80;0.80;;;1.20;99.90;;;;;;4913610;29;20211;-61
2023/12/23 01:15:36;;;;;;;1.83;0.90;;;1.20;99.90;;;;;;4921492;29;20184;-61
2023/12/23 01:18:02;;;;;;;0.80;0.80;;;1.30;99.90;;;;;;4913764;29;20187;-63
2023/12/23 01:20:28;;;;;;;2.60;1.00;;;1.30;99.90;;;;;;4909017;29;21086;-62
2023/12/23 01:22:53;;;;;;;1.70;0.90;;;1.30;99.90;;;;;;4903953;29;20439;-61
2023/12/23 01:25:22;;;;;;;0.90;0.90;;;1.30;99.90;;;;;;4916219;29;20656;-64
2023/12/23 01:27:47;;;;;;;4.37;2.07;;;1.40;99.90;;;;;;4915947;29;20351;-63
2023/12/23 01:30:13;;;;;;;1.27;1.17;;;1.40;99.90;;;;;;4910562;29;20525;-64
2023/12/23 01:32:38;;;;;;;4.73;1.00;;;1.40;99.90;;;;;;4914074;29;20523;-64
2023/12/23 01:35:04;;;;;;;1.17;1.07;;;1.50;99.90;;;;;;4901625;29;20552;-64
2023/12/23 01:37:30;;;;;;;1.53;1.40;;;1.50;99.90;;;;;;4908010;29;20195;-64
2023/12/23 01:39:55;;;;;;;2.83;1.10;;;1.50;99.90;;;;;;4909839;29;20453;-64
2023/12/23 01:42:21;;;;;;;4.30;1.47;;;1.50;99.90;;;;;;4930855;23;20259;-55
2023/12/23 01:44:47;;;;;;;6.37;1.60;;;1.50;99.90;;;;;;4934257;29;20216;-57
2023/12/23 01:47:12;;;;;;;3.10;1.20;;;1.60;99.90;;;;;;4937520;29;20723;-60
2023/12/23 01:49:40;;;;;;;2.30;1.30;;;1.60;99.90;;;;;;4930304;29;20787;-60
2023/12/23 01:52:06;;;;;;;2.40;1.20;;;1.60;99.90;;;;;;4922971;29;20219;-57
2023/12/23 01:54:31;;;;;;;2.67;0.93;;;1.60;99.90;;;;;;4936543;29;20419;-58
2023/12/23 01:56:58;;;;;;;1.30;1.00;;;1.60;99.90;;;;;;4929853;29;20639;-58
2023/12/23 01:59:24;;;;;;;3.43;0.97;;;1.60;99.90;;;;;;4928165;29;20195;-60
2023/12/23 02:01:51;;;;;;;2.93;1.43;;;1.60;99.90;;;;;;4936588;29;20842;-60
2023/12/23 02:04:17;;;;;;;5.13;1.17;;;1.60;99.90;;;;;;4935716;29;20274;-60
2023/12/23 02:06:43;;;;;;;1.20;0.80;;;1.60;99.90;;;;;;4927201;29;20829;-60
2023/12/23 02:09:10;;;;;;;2.33;0.97;;;1.60;99.90;;;;;;4936482;29;20462;-60
2023/12/23 02:11:43;;;;;;;3.57;1.43;;;1.60;99.90;;;;;;4925867;29;20192;-61
2023/12/23 02:14:17;;;;;;;1.93;1.00;;;1.60;99.90;;;;;;4932380;29;20427;-60
2023/12/23 02:16:43;;;;;;;6.20;1.30;;;1.60;99.90;;;;;;4928925;29;20413;-60
2023/12/23 02:19:09;;;;;;;1.10;0.93;;;1.60;99.90;;;;;;4936804;29;20431;-60
2023/12/23 02:21:34;;;;;;;1.10;1.00;;;1.50;99.90;;;;;;4936102;29;20429;-60
2023/12/23 02:24:00;;;;;;;3.77;1.30;;;1.50;99.90;;;;;;4936339;29;20290;-60
2023/12/23 02:26:27;;;;;;;5.27;1.63;;;1.50;99.90;;;;;;4936172;29;20183;-60
2023/12/23 02:28:54;;;;;;;2.43;0.83;;;1.50;99.90;;;;;;4936307;29;20203;-59
2023/12/23 02:31:20;;;;;;;2.50;0.97;;;1.50;99.90;;;;;;4936619;29;20518;-60
2023/12/23 02:33:47;;;;;;;8.27;1.20;;;1.40;99.90;;;;;;4936860;29;20442;-60
2023/12/23 02:36:13;;;;;;;1.10;0.93;;;1.30;99.90;;;;;;4935673;29;20461;-59
2023/12/23 02:38:39;;;;;;;2.87;1.23;;;1.30;99.90;;;;;;4935954;29;20434;-60
2023/12/23 02:41:05;;;;;;;4.83;1.33;;;1.30;99.90;;;;;;4936130;29;20435;-58
2023/12/23 02:43:30;;;;;;;7.30;2.07;;;1.20;99.90;;;;;;4935972;29;20251;-60
2023/12/23 02:45:56;;;;;;;2.90;0.97;;;1.20;99.90;;;;;;4936076;29;20434;-60
2023/12/23 02:48:22;;;;;;;2.97;1.00;;;1.10;99.90;;;;;;4935533;29;20721;-60
2023/12/23 02:50:47;;;;;;;2.13;0.90;;;1.20;99.90;;;;;;4934170;29;20182;-61
2023/12/23 02:53:13;;;;;;;1.37;1.00;;;1.20;99.90;;;;;;4935358;29;20238;-59
2023/12/23 02:55:38;;;;;;;2.80;1.30;;;1.20;99.90;;;;;;4935320;29;20182;-59
2023/12/23 02:58:04;;;;;;;3.13;1.33;;;1.30;99.90;;;;;;4935626;29;20620;-60
2023/12/23 03:00:29;;;;;;;1.03;0.93;;;1.30;99.90;;;;;;4935588;29;20194;-60
2023/12/23 03:02:56;;;;;;;0.93;0.83;;;1.30;99.90;;;;;;4935870;29;20210;-61
2023/12/23 03:05:22;;;;;;;1.17;0.90;;;1.30;99.90;;;;;;4933987;29;20194;-61
2023/12/23 03:07:47;;;;;;;4.17;1.50;;;1.30;99.90;;;;;;4927663;29;20474;-60
2023/12/23 03:10:13;;;;;;;1.13;0.80;;;1.30;99.90;;;;;;4935601;29;20210;-60
2023/12/23 03:12:39;;;;;;;2.10;1.77;;;1.20;99.90;;;;;;4934845;29;20541;-61
2023/12/23 03:15:05;;;;;;;6.07;0.97;;;1.20;99.90;;;;;;4935542;29;20186;-61
2023/12/23 03:17:30;;;;;;;4.17;1.43;;;1.00;99.90;;;;;;4935306;29;20182;-61
2023/12/23 03:19:56;;;;;;;1.50;0.97;;;1.00;99.90;;;;;;4924703;29;20431;-60
2023/12/23 03:22:22;;;;;;;1.43;0.90;;;1.00;99.90;;;;;;4931796;29;20704;-60
2023/12/23 03:24:47;;;;;;;0.70;0.70;;;1.00;99.90;;;;;;4926798;29;20182;-60
2023/12/23 03:27:13;;;;;;;2.50;0.87;;;1.00;99.90;;;;;;4935166;29;20423;-60
2023/12/23 03:29:39;;;;;;;1.33;1.20;;;0.90;99.90;;;;;;4934744;29;20473;-59
2023/12/23 03:32:05;;;;;;;0.87;0.83;;;1.00;99.90;;;;;;4935263;29;20572;-59
2023/12/23 03:34:30;;;;;;;1.90;0.90;;;1.00;99.90;;;;;;4934737;29;20237;-61
2023/12/23 03:36:56;;;;;;;3.47;2.37;;;1.00;99.90;;;;;;4930618;29;20432;-60
2023/12/23 03:39:21;;;;;;;1.40;0.83;;;1.10;99.90;;;;;;4931723;29;20215;-60
2023/12/23 03:41:47;;;;;;;2.23;0.93;;;1.00;99.90;;;;;;4934524;29;20194;-62
2023/12/23 03:44:12;;;;;;;1.20;1.10;;;1.10;99.90;;;;;;4935022;29;20289;-60
2023/12/23 03:46:39;;;;;;;1.17;0.90;;;1.10;99.90;;;;;;4934435;29;20183;-60
2023/12/23 03:49:04;;;;;;;1.50;1.40;;;1.00;99.90;;;;;;4934976;29;20218;-60
2023/12/23 03:51:30;;;;;;;1.63;0.80;;;1.10;99.90;;;;;;4932404;29;20431;-61
2023/12/23 03:53:55;;;;;;;1.60;1.40;;;1.10;99.90;;;;;;4934593;29;20696;-60
2023/12/23 03:56:21;;;;;;;3.33;1.10;;;1.10;99.90;;;;;;4934512;29;20187;-61
2023/12/23 03:58:47;;;;;;;3.17;1.20;;;1.10;99.90;;;;;;4934486;29;20183;-60
2023/12/23 04:01:15;;;;;;;2.10;0.90;;;1.10;99.90;;;;;;4934672;29;20191;-62
2023/12/23 04:03:41;;;;;;;2.60;1.20;;;1.20;99.90;;;;;;4934431;29;20215;-59
2023/12/23 04:06:06;;;;;;;0.97;0.83;;;1.20;99.90;;;;;;4934439;29;21085;-60
2023/12/23 04:08:32;;;;;;;6.67;1.00;;;1.20;99.90;;;;;;4934258;29;20741;-62
2023/12/23 04:10:59;;;;;;;3.13;0.93;;;1.30;99.90;;;;;;4932579;29;20179;-60
2023/12/23 04:13:24;;;;;;;1.67;0.80;;;1.30;99.90;;;;;;4927057;29;20450;-60
2023/12/23 04:15:50;;;;;;;2.20;1.40;;;1.30;99.90;;;;;;4931455;29;20442;-60
2023/12/23 04:18:15;;;;;;;3.90;1.20;;;1.40;99.90;;;;;;4927455;29;20213;-60
2023/12/23 04:20:41;;;;;;;5.67;1.20;;;1.50;99.90;;;;;;4917666;29;20190;-61
2023/12/23 04:23:06;;;;;;;6.20;1.50;;;1.40;99.90;;;;;;4917297;29;20216;-60
2023/12/23 04:25:32;;;;;;;2.37;1.00;;;1.40;99.90;;;;;;4929954;29;20266;-61
2023/12/23 04:27:57;;;;;;;4.23;1.43;;;1.50;99.90;;;;;;4935115;29;20213;-61
2023/12/23 04:30:23;;;;;;;2.73;1.00;;;1.50;99.90;;;;;;4925824;29;20191;-61
2023/12/23 04:32:49;;;;;;;6.17;1.23;;;1.60;99.90;;;;;;4934068;29;20763;-61
2023/12/23 04:35:14;;;;;;;2.97;1.37;;;1.70;99.90;;;;;;4934354;29;20230;-60
2023/12/23 04:37:41;;;;;;;3.20;1.10;;;1.60;99.90;;;;;;4933983;29;20273;-60
2023/12/23 04:40:08;;;;;;;1.97;1.10;;;1.60;99.90;;;;;;4917208;29;20238;-61
2023/12/23 04:42:33;;;;;;;4.33;1.77;;;1.70;99.90;;;;;;4918681;29;20477;-62
2023/12/23 04:44:59;;;;;;;7.43;1.87;;;1.70;99.90;;;;;;4932300;29;20798;-60
2023/12/23 04:47:25;;;;;;;4.20;1.60;;;1.70;99.90;;;;;;4933806;29;20761;-61
2023/12/23 04:49:50;;;;;;;14.80;2.37;;;1.80;99.90;;;;;;4934003;29;20186;-60
2023/12/23 04:52:16;;;;;;;5.43;1.93;;;1.90;99.90;;;;;;4931485;29;20198;-61
2023/12/23 04:54:41;;;;;;;8.63;1.83;;;1.80;99.90;;;;;;4933996;29;20685;-61
2023/12/23 04:57:07;;;;;;;3.93;1.20;;;1.80;99.90;;;;;;4928867;29;20180;-61
2023/12/23 04:59:33;;;;;;;2.37;1.40;;;1.80;99.90;;;;;;4926950;29;20187;-61
2023/12/23 05:01:58;;;;;;;18.63;1.63;;;1.80;99.90;;;;;;4929835;29;20210;-62
2023/12/23 05:04:24;;;;;;;4.40;1.50;;;1.80;99.90;;;;;;4930679;29;20183;-61
2023/12/23 05:06:50;;;;;;;8.07;2.13;;;1.80;99.90;;;;;;4930183;29;20713;-62
2023/12/23 05:09:16;;;;;;;4.57;1.47;;;1.80;99.90;;;;;;4930219;29;20463;-61
2023/12/23 05:11:41;;;;;;;4.07;1.63;;;1.80;99.90;;;;;;4937516;29;20431;-61
2023/12/23 05:14:07;;;;;;;10.27;4.60;;;1.90;99.90;;;;;;4937851;29;20262;-61
2023/12/23 05:16:32;;;;;;;5.40;2.10;;;1.90;99.90;;;;;;4932747;29;20266;-61
2023/12/23 05:18:58;;;;;;;7.40;2.60;;;1.90;99.90;;;;;;4937859;29;20190;-60
2023/12/23 05:21:24;;;;;;;7.83;2.97;;;1.90;99.90;;;;;;4934046;29;20179;-60
2023/12/23 05:23:49;;;;;;;4.33;2.70;;;1.90;99.90;;;;;;4937472;29;20217;-61
2023/12/23 05:26:20;;;;;;;5.93;2.30;;;1.90;99.90;;;;;;4937545;29;20225;-62
2023/12/23 05:28:45;;;;;;;5.70;2.27;;;2.00;99.90;;;;;;4937109;29;20215;-62
2023/12/23 05:31:11;;;;;;;9.93;3.70;;;2.00;99.90;;;;;;4937197;29;20921;-60
2023/12/23 05:33:36;;;;;;;8.70;2.57;;;2.00;99.90;;;;;;4929226;29;20227;-61
2023/12/23 05:36:02;;;;;;;5.13;2.30;;;2.00;99.90;;;;;;4937133;29;20265;-61
2023/12/23 05:38:28;;;;;;;9.23;2.67;;;2.00;99.90;;;;;;4936915;29;20199;-61
2023/12/23 05:40:53;;;;;;;10.77;1.87;;;2.10;99.90;;;;;;4937072;29;20210;-62
2023/12/23 05:43:19;;;;;;;6.67;2.60;;;2.20;99.90;;;;;;4936888;29;20238;-61
2023/12/23 05:45:45;;;;;;;14.90;2.77;;;2.20;99.90;;;;;;4937020;29;20811;-62
2023/12/23 05:48:11;;;;;;;12.73;3.03;;;2.10;99.90;;;;;;4935595;29;20737;-61
2023/12/23 05:50:36;;;;;;;6.10;2.30;;;2.10;99.90;;;;;;4932523;29;20447;-62
2023/12/23 05:53:02;;;;;;;9.53;2.17;;;2.10;99.90;;;;;;4937041;29;20620;-61
2023/12/23 05:55:27;;;;;;;5.00;2.40;;;2.10;99.90;;;;;;4936703;29;20215;-61
2023/12/23 05:57:53;;;;;;;4.60;1.23;;;2.20;99.90;;;;;;4936851;29;20226;-59
2023/12/23 06:00:20;;;;;;;4.30;2.37;;;2.30;99.90;;;;;;4918604;29;20190;-61
2023/12/23 06:02:46;;;;;;;11.37;1.90;;;2.40;99.90;;;;;;4931376;29;20281;-61
2023/12/23 06:05:11;;;;;;;6.70;1.80;;;2.40;99.90;;;;;;4934692;29;20481;-61
2023/12/23 06:07:37;;;;;;;8.57;2.07;;;2.40;99.90;;;;;;4934228;29;20458;-61
2023/12/23 06:10:03;;;;;;;3.00;1.33;;;2.40;99.90;;;;;;4928779;29;20198;-61
2023/12/23 06:12:29;;;;;;;2.57;1.70;;;2.40;99.90;;;;;;4934702;29;20230;-59
2023/12/23 06:14:57;;;;;;;6.77;1.83;;;2.40;99.90;;;;;;4936486;29;20439;-62
2023/12/23 06:17:23;;;;;;;6.70;2.10;;;2.50;99.90;;;;;;4932991;29;20530;-63
2023/12/23 06:19:48;;;;;;;5.23;1.87;;;2.50;99.90;;;;;;4925511;29;20530;-61
2023/12/23 06:22:14;;;;;;;5.90;2.10;;;2.40;99.90;;;;;;4935588;29;20715;-60
2023/12/23 06:24:39;;;;;;;7.50;1.87;;;2.40;99.90;;;;;;4934299;29;20198;-60
2023/12/23 06:27:05;;;;;;;8.93;2.73;;;2.50;99.90;;;;;;4929159;29;20187;-60
2023/12/23 06:29:30;;;;;;;5.33;2.30;;;2.40;99.90;;;;;;4934820;29;20298;-61
2023/12/23 06:31:57;;;;;;;3.80;1.47;;;2.40;99.90;;;;;;4930567;29;20191;-60
2023/12/23 06:34:23;;;;;;;5.40;2.47;;;2.40;99.90;;;;;;4923962;29;20607;-59
2023/12/23 06:36:48;;;;;;;10.60;2.63;;;2.50;99.90;;;;;;4934867;29;20449;-59
2023/12/23 06:39:14;;;;;;;14.43;2.10;;;2.50;99.90;;;;;;4935682;29;20282;-60
2023/12/23 06:41:40;;;;;;;2.90;1.87;;;2.40;99.90;;;;;;4933949;29;20197;-62
2023/12/23 06:44:05;;;;;;;9.90;1.83;;;2.40;99.90;;;;;;4935941;29;20258;-61
2023/12/23 06:46:31;;;;;;;7.50;1.53;;;2.40;99.90;;;;;;4936186;29;20211;-61
2023/12/23 06:48:56;;;;;;;7.93;1.67;;;2.40;99.90;;;;;;4935891;29;20740;-61
2023/12/23 06:51:22;;;;;;;15.70;2.27;;;2.40;99.90;;;;;;4929621;29;20179;-62
2023/12/23 06:53:48;;;;;;;10.37;2.37;;;2.40;99.90;;;;;;4935770;29;20281;-61
2023/12/23 06:56:14;;;;;;;3.73;1.63;;;2.40;99.90;;;;;;4926262;29;20604;-61
2023/12/23 06:58:40;;;;;;;2.30;1.70;;;2.50;99.90;;;;;;4934496;29;20430;-61
2023/12/23 07:01:05;;;;;;;1.77;1.20;;;2.50;99.90;;;;;;4934072;29;20198;-59
2023/12/23 07:03:31;;;;;;;11.43;2.03;;;2.50;99.90;;;;;;4935345;29;20215;-61
2023/12/23 07:05:57;;;;;;;3.50;1.83;;;2.60;99.90;;;;;;4935185;29;20197;-61
2023/12/23 07:08:23;;;;;;;7.17;2.23;;;2.60;99.90;;;;;;4929954;29;20211;-61
2023/12/23 07:10:49;;;;;;;4.70;2.23;;;2.60;99.90;;;;;;4934249;29;20187;-58
2023/12/23 07:13:15;;;;;;;3.10;1.67;;;2.60;99.90;;;;;;4935445;29;20578;-61
2023/12/23 07:15:40;;;;;;;3.80;2.27;;;2.70;99.90;;;;;;4926767;29;20939;-61
2023/12/23 07:18:07;;;;;;;4.60;1.40;;;2.70;99.90;;;;;;4927440;29;20191;-60
2023/12/23 07:20:32;;;;;;;4.53;1.90;;;2.70;99.90;;;;;;4924425;29;20220;-60
2023/12/23 07:22:58;;;;;;;5.13;1.40;;;2.70;99.90;;;;;;4912168;29;20565;-61
2023/12/23 07:25:24;;;;;;;3.00;1.70;;;2.70;99.90;;;;;;4931329;29;20195;-61
2023/12/23 07:27:49;;;;;;;3.43;1.53;;;2.70;99.90;;;;;;4937783;29;20225;-61
2023/12/23 07:30:15;;;;;;;3.13;1.50;;;2.70;99.90;;;;;;4934606;29;20528;-61
2023/12/23 07:32:41;;;;;;;4.77;1.37;;;2.70;99.90;;;;;;4934806;29;20213;-61
2023/12/23 07:35:07;;;;;;;5.50;1.43;;;2.70;99.90;;;;;;4935335;29;20187;-60
2023/12/23 07:37:32;;;;;;;4.40;1.10;;;2.60;99.90;;;;;;4935053;29;20427;-61
2023/12/23 07:39:58;;;;;;;3.17;1.73;;;2.60;99.90;;;;;;4934778;29;20579;-61
2023/12/23 07:42:24;;;;;;;2.40;1.20;;;2.70;99.90;;;;;;4925643;29;20215;-61
2023/12/23 07:44:49;;;;;;;2.63;1.40;;;2.70;99.90;;;;;;4933068;29;20282;-61
2023/12/23 07:47:15;;;;;;;1.93;1.50;;;2.70;99.90;;;;;;4934896;29;20187;-61
2023/12/23 07:49:40;;;;;;;3.50;1.30;;;2.70;99.90;;;;;;4921728;29;20274;-60
2023/12/23 07:52:09;;;;;;;1.30;1.20;;;2.60;99.90;;;;;;4922601;29;20242;-59
2023/12/23 07:54:35;;;;;;;2.57;1.37;;;2.60;99.90;;;;;;4928710;29;20183;-60
2023/12/23 07:57:00;;;;;;;6.00;1.87;;;2.60;99.90;;;;;;4927016;29;20465;-61
2023/12/23 07:59:26;;;;;;;4.00;1.67;;;2.70;99.90;;;;;;4934784;29;20187;-61
2023/12/23 08:01:52;;;;;;;3.10;1.10;;;2.70;99.90;;;;;;4928043;29;20214;-61
2023/12/23 08:04:18;;;;;;;6.10;1.30;;;2.70;99.90;;;;;;4928663;29;20202;-61
2023/12/23 08:06:43;;;;;;;2.17;1.07;;;2.70;99.90;;;;;;4934597;29;20551;-61
2023/12/23 08:09:10;;;;;;;4.80;1.17;;;2.70;99.90;;;;;;4926680;29;20202;-61
2023/12/23 08:11:35;;;;;;;3.23;1.20;;;2.70;99.90;;;;;;4928279;29;20187;-60
2023/12/23 08:14:02;;;;;;;5.77;1.37;;;2.70;99.90;;;;;;4932228;29;20449;-62
2023/12/23 08:16:28;;;;;;;3.90;1.40;;;2.70;99.90;;;;;;4932025;29;20184;-61
2023/12/23 08:18:54;;;;;;;2.50;1.33;;;2.60;99.90;;;;;;4934087;29;20542;-61
2023/12/23 08:21:19;;;;;;;7.20;1.60;;;2.60;99.90;;;;;;4934250;29;20565;-61
2023/12/23 08:23:45;;;;;;;2.67;1.10;;;2.70;99.90;;;;;;4932922;29;20241;-61
2023/12/23 08:26:10;;;;;;;2.87;2.30;;;2.60;99.90;;;;;;4933399;29;20186;-63
2023/12/23 08:28:37;;;;;;;4.63;1.30;;;2.60;99.90;;;;;;4926044;29;20208;-61
2023/12/23 08:31:03;;;;;;;3.47;1.63;;;2.70;99.90;;;;;;4929504;29;20191;-61
2023/12/23 08:33:28;;;;;;;2.70;1.40;;;2.70;99.90;;;;;;4933554;29;20447;-61
2023/12/23 08:35:56;;;;;;;2.97;1.30;;;2.70;99.90;;;;;;4933779;29;21256;-61
2023/12/23 08:38:21;;;;;;;4.17;1.80;;;2.70;99.90;;;;;;4921537;29;20225;-61
2023/12/23 08:40:47;;;;;;;3.30;1.23;;;2.70;99.90;;;;;;4929004;29;20423;-61
2023/12/23 08:43:12;;;;;;;3.40;2.30;;;2.70;99.90;;;;;;4929785;29;20317;-61
2023/12/23 08:45:38;;;;;;;6.33;1.87;;;2.70;99.90;;;;;;4926756;29;20340;-61
2023/12/23 08:48:04;;;;;;;5.90;2.50;;;2.70;99.90;;;;;;4926963;29;20203;-61
2023/12/23 08:50:30;;;;;;;4.33;1.50;;;2.80;99.90;;;;;;4925227;29;20475;-61
2023/12/23 08:52:55;;;;;;;2.17;1.97;;;2.80;99.90;;;;;;4933629;29;20447;-61
2023/12/23 08:55:21;;;;;;;3.70;1.53;;;2.80;99.90;;;;;;4933524;29;20179;-61
2023/12/23 08:57:47;;;;;;;2.73;2.00;;;2.90;99.90;;;;;;4928337;29;20685;-61
2023/12/23 09:00:13;;;;;;;4.73;1.83;;;3.00;99.90;;;;;;4919318;29;20681;-62
2023/12/23 09:02:38;;;;;;;5.40;1.80;;;2.90;99.90;;;;;;4931398;29;20281;-61
2023/12/23 09:05:04;;;;;;;2.57;1.50;;;3.00;99.90;;;;;;4933175;29;20430;-62
2023/12/23 09:07:30;;;;;;;8.93;2.13;;;2.90;99.90;;;;;;4934076;29;20187;-62
2023/12/23 09:09:56;;;;;;;7.33;1.70;;;2.90;99.90;;;;;;4933863;29;20441;-62
2023/12/23 09:12:21;;;;;;;5.77;1.77;;;3.10;99.90;;;;;;4932740;29;20318;-62
2023/12/23 09:14:50;;;;;;;2.50;2.30;;;3.10;99.90;;;;;;4933382;29;20246;-62
2023/12/23 09:17:16;;;;;;;7.57;1.10;;;3.00;99.90;;;;;;4922698;29;20186;-62
2023/12/23 09:19:42;;;;;;;3.73;1.43;;;3.00;99.90;;;;;;4922748;29;20445;-63
2023/12/23 09:22:07;;;;;;;4.30;1.47;;;2.90;99.90;;;;;;4931945;29;20450;-63
2023/12/23 09:24:34;;;;;;;2.23;1.30;;;2.90;99.90;;;;;;4933144;29;20191;-64
2023/12/23 09:27:00;;;;;;;6.90;1.30;;;2.90;99.90;;;;;;4932935;29;20296;-63
2023/12/23 09:29:26;;;;;;;2.40;1.50;;;2.80;99.90;;;;;;4924451;29;20544;-63
2023/12/23 09:31:51;;;;;;;1.80;1.03;;;2.80;99.90;;;;;;4931369;29;20260;-64
2023/12/23 09:34:17;;;;;;;4.20;1.27;;;2.70;99.90;;;;;;4933482;29;20554;-62
2023/12/23 09:36:43;;;;;;;2.40;1.00;;;2.70;99.90;;;;;;4922837;29;20198;-62
2023/12/23 09:39:08;;;;;;;4.93;1.27;;;2.60;99.90;;;;;;4942001;29;20587;-62
2023/12/23 09:41:34;;;;;;;2.83;1.57;;;2.50;99.90;;;;;;4931124;29;20238;-63
2023/12/23 09:44:00;;;;;;;1.83;1.20;;;2.40;99.90;;;;;;4930615;29;20725;-63
2023/12/23 09:46:26;;;;;;;4.10;1.17;;;2.50;99.90;;;;;;4899993;29;20799;-62
2023/12/23 09:48:52;;;;;;;2.83;1.27;;;2.30;99.90;;;;;;4936268;29;20528;-63
2023/12/23 09:51:18;;;;;;;2.80;1.30;;;2.40;99.90;;;;;;4931983;29;20427;-63
2023/12/23 09:53:47;;;;;;;3.03;1.30;;;2.40;99.90;;;;;;4928490;29;20206;-63
2023/12/23 09:56:13;;;;;;;5.30;1.40;;;2.30;99.90;;;;;;4932817;29;20423;-62
2023/12/23 09:58:42;;;;;;;1.53;1.33;;;2.20;99.90;;;;;;4936368;29;20499;-63
2023/12/23 10:01:09;;;;;;;0.90;0.80;;;2.20;99.90;;;;;;4928573;29;20438;-62
2023/12/23 10:03:34;;;;;;;1.30;1.10;;;2.30;99.90;;;;;;4930061;29;20497;-62
2023/12/23 10:06:03;;;;;;;1.30;1.20;;;2.30;99.90;;;;;;4932480;29;20422;-62
2023/12/23 10:08:29;;;;;;;1.77;1.00;;;2.30;99.90;;;;;;4934581;29;20210;-62
2023/12/23 10:10:54;;;;;;;4.13;1.30;;;2.30;99.90;;;;;;4936086;29;20430;-62
2023/12/23 10:13:20;;;;;;;1.33;1.10;;;2.20;99.90;;;;;;4931096;29;20210;-62
2023/12/23 10:15:46;;;;;;;2.30;1.27;;;2.20;99.90;;;;;;4933625;29;20207;-62
2023/12/23 10:18:12;;;;;;;2.37;1.27;;;2.30;99.90;;;;;;4936127;29;20430;-61
2023/12/23 10:20:38;;;;;;;2.60;1.43;;;2.20;99.90;;;;;;4936227;29;20595;-62
2023/12/23 10:23:04;;;;;;;1.70;1.10;;;2.30;99.90;;;;;;4934456;29;20451;-62
2023/12/23 10:25:30;;;;;;;2.97;1.20;;;2.20;99.90;;;;;;4936652;29;20423;-64
2023/12/23 10:28:05;;;;;;;2.57;1.20;;;2.30;99.90;;;;;;4936335;29;20466;-61
2023/12/23 10:30:34;;;;;;;1.30;1.20;;;2.30;99.90;;;;;;4936561;29;20423;-63
2023/12/23 10:33:05;;;;;;;5.67;1.30;;;2.10;99.90;;;;;;4934570;29;20469;-60
2023/12/23 10:35:37;;;;;;;1.73;1.10;;;2.00;99.90;;;;;;4936452;29;20498;-61
2023/12/23 10:38:08;;;;;;;2.43;1.50;;;2.00;99.90;;;;;;4934696;29;20917;-61
2023/12/23 10:40:34;;;;;;;1.60;1.10;;;2.00;99.90;;;;;;4936216;29;20427;-62
2023/12/23 10:43:01;;;;;;;2.43;1.37;;;2.00;99.90;;;;;;4935436;29;20481;-62
2023/12/23 10:45:27;;;;;;;3.80;1.60;;;2.00;99.90;;;;;;4930185;29;20175;-63
2023/12/23 10:47:54;;;;;;;2.13;1.50;;;1.90;99.90;;;;;;4935529;29;20418;-61
2023/12/23 10:50:21;;;;;;;5.70;1.47;;;1.70;99.90;;;;;;4927799;29;20454;-60
2023/12/23 10:52:48;;;;;;;1.37;1.03;;;1.80;99.90;;;;;;4932351;29;20431;-61
2023/12/23 10:55:16;;;;;;;2.10;1.67;;;1.70;99.90;;;;;;4917100;29;20440;-61
2023/12/23 10:57:44;;;;;;;1.43;1.33;;;1.80;99.90;;;;;;4935620;29;20420;-61
2023/12/23 11:00:10;;;;;;;3.70;1.30;;;1.80;99.90;;;;;;4928878;29;20432;-61
2023/12/23 11:02:37;;;;;;;1.57;1.20;;;1.80;99.90;;;;;;4935557;29;20998;-61
2023/12/23 11:05:07;;;;;;;2.27;1.30;;;1.90;99.90;;;;;;4932009;29;21146;-60
2023/12/23 11:07:45;;;;;;;1.17;1.07;;;1.90;99.90;;;;;;4931488;29;20952;-61
2023/12/23 11:10:13;;;;;;;1.80;1.70;;;1.80;99.90;;;;;;4920383;29;20811;-61
2023/12/23 11:12:39;;;;;;;1.70;1.20;;;1.80;99.90;;;;;;4933050;29;20450;-62
2023/12/23 11:15:05;;;;;;;4.60;1.40;;;1.80;99.90;;;;;;4934984;29;20430;-62
2023/12/23 11:17:31;;;;;;;2.70;1.80;;;1.80;99.90;;;;;;4920591;29;20434;-63
2023/12/23 11:20:02;;;;;;;2.40;2.20;;;1.80;99.90;;;;;;4933041;29;20504;-64
2023/12/23 11:22:38;;;;;;;2.03;1.57;;;1.70;99.90;;;;;;4932977;29;20206;-63
2023/12/23 11:25:24;;;;;;;7.23;1.50;;;1.70;99.90;;;;;;4934017;29;20470;-62
2023/12/23 11:27:50;;;;;;;1.60;1.50;;;1.80;99.90;;;;;;4933699;29;20458;-61
2023/12/23 11:30:15;;;;;;;4.07;1.70;;;1.90;99.90;;;;;;4934897;29;20443;-62
2023/12/23 11:32:43;;;;;;;4.77;1.83;;;1.80;99.90;;;;;;4934588;29;20270;-62
2023/12/23 11:35:13;;;;;;;1.97;1.73;;;1.90;99.90;;;;;;4923796;29;20231;-63
2023/12/23 11:37:50;;;;;;;2.20;2.00;;;1.90;99.90;;;;;;4931188;29;20434;-61
2023/12/23 11:40:16;;;;;;;1.60;1.20;;;2.00;99.90;;;;;;4923687;29;20438;-61
2023/12/23 11:42:43;;;;;;;3.73;1.93;;;1.80;99.90;;;;;;4922158;29;20451;-61
2023/12/23 11:45:11;;;;;;;1.40;1.30;;;1.80;99.90;;;;;;4926315;29;20880;-63
2023/12/23 11:47:37;;;;;;;2.17;1.70;;;1.80;99.90;;;;;;4931461;29;20414;-62
2023/12/23 11:50:05;;;;;;;3.00;1.80;;;1.80;99.90;;;;;;4934225;29;20941;-62
2023/12/23 11:52:31;;;;;;;1.63;1.53;;;1.80;99.90;;;;;;4921122;29;20558;-61
2023/12/23 11:54:57;;;;;;;2.50;1.70;;;1.70;99.90;;;;;;4929969;29;20514;-59
2023/12/23 11:57:22;;;;;;;1.90;1.53;;;1.80;99.90;;;;;;4934060;29;20737;-62
2023/12/23 11:59:49;;;;;;;2.20;1.20;;;1.80;99.90;;;;;;4930200;29;20179;-62
2023/12/23 12:02:15;;;;;;;1.50;1.40;;;1.80;99.90;;;;;;4933435;29;20255;-63
2023/12/23 12:04:40;;;;;;;2.40;1.40;;;1.80;99.90;;;;;;4935345;29;20825;-62
2023/12/23 12:07:06;;;;;;;2.17;0.90;;;1.80;99.90;;;;;;4924837;29;20717;-62
2023/12/23 12:09:32;;;;;;;2.83;1.70;;;1.80;99.90;;;;;;4934329;29;20262;-64
2023/12/23 12:11:59;;;;;;;1.47;1.37;;;1.80;99.90;;;;;;4929147;29;20175;-62
2023/12/23 12:14:26;;;;;;;3.33;1.60;;;1.70;99.90;;;;;;4934000;29;20976;-65
2023/12/23 12:16:52;;;;;;;18.90;2.50;;;1.70;99.90;;;;;;4936305;29;20415;-64
2023/12/23 12:19:17;;;;;;;3.30;1.80;;;1.70;99.90;;;;;;4931018;29;20914;-65
2023/12/23 12:21:43;;;;;;;2.00;1.40;;;1.80;99.90;;;;;;4927464;29;20562;-63
2023/12/23 12:24:10;;;;;;;6.70;2.53;;;1.70;99.90;;;;;;4925847;29;20191;-61
2023/12/23 12:26:35;;;;;;;2.53;1.50;;;1.90;99.90;;;;;;4923363;29;20424;-62
2023/12/23 12:29:02;;;;;;;4.03;1.20;;;1.80;99.90;;;;;;4926819;29;20465;-64
2023/12/23 12:31:29;;;;;;;2.63;1.43;;;1.80;99.90;;;;;;4931462;29;20631;-62
2023/12/23 12:33:55;;;;;;;5.30;2.30;;;1.90;99.90;;;;;;4932030;29;20466;-62
2023/12/23 12:36:21;;;;;;;2.40;1.77;;;1.90;99.90;;;;;;4933112;29;20490;-62
2023/12/23 12:38:47;;;;;;;2.80;2.10;;;1.90;99.90;;;;;;4931115;29;20553;-62
2023/12/23 12:41:13;;;;;;;3.07;2.00;;;2.00;99.90;;;;;;4929732;29;20509;-62
2023/12/23 12:43:40;;;;;;;2.50;1.73;;;2.00;99.90;;;;;;4934119;29;20242;-63
2023/12/23 12:46:06;;;;;;;2.00;1.77;;;2.10;99.90;;;;;;4933942;29;20430;-62
2023/12/23 12:48:32;;;;;;;2.83;1.30;;;2.00;99.90;;;;;;4930384;29;20825;-62
2023/12/23 12:50:58;;;;;;;2.70;1.27;;;2.00;99.90;;;;;;4934016;29;20429;-63